Time;durP1;ratioP1;P1;durP2;ratioP2;P2;SDS_P1;SDS_P2;PMS_P1;PMS_P2;Temp;Humidity;BMP_temperature;BMP_pressure;BME280_temperature;BME280_humidity;BME280_pressure;Samples;Min_cycle;Max_cycle;Signal;HPM_P1;HPM_P2
2022/12/13 01:15:18;;;;;;;8.00;6.53;;;;;;;3.44;100.00;99473.52;1782293;79;28645;-78
2022/12/13 01:18:26;;;;;;;9.03;6.80;;;;;;;3.14;100.00;99484.11;1777634;80;21264;-76
2022/12/13 01:21:31;;;;;;;9.13;7.15;;;;;;;3.13;100.00;99479.70;1765739;80;21771;-76
2022/12/13 01:24:38;;;;;;;7.83;7.03;;;;;;;3.14;100.00;99479.55;1729037;83;21740;-78
2022/12/13 01:27:43;;;;;;;8.55;7.03;;;;;;;3.09;100.00;99481.84;1730500;82;21160;-78
2022/12/13 01:30:50;;;;;;;10.20;7.78;;;;;;;3.29;100.00;99490.23;1730406;83;21176;-80
2022/12/13 01:33:56;;;;;;;11.50;8.13;;;;;;;3.36;100.00;99477.47;1729804;83;21218;-78
2022/12/13 01:37:02;;;;;;;12.30;8.83;;;;;;;3.49;100.00;99474.76;1728847;81;21783;-76
2022/12/13 01:40:08;;;;;;;12.95;9.40;;;;;;;3.41;100.00;99471.10;1725007;83;21255;-78
2022/12/13 01:43:17;;;;;;;16.02;9.55;;;;;;;3.31;100.00;99463.89;1726218;82;21211;-78
2022/12/13 01:46:23;;;;;;;17.92;10.00;;;;;;;3.27;100.00;99460.29;1726499;83;21207;-77
2022/12/13 01:49:28;;;;;;;13.95;9.70;;;;;;;3.31;100.00;99459.84;1726395;83;21255;-78
2022/12/13 01:52:37;;;;;;;12.70;8.53;;;;;;;3.37;100.00;99457.03;1738646;82;21198;-79
2022/12/13 01:55:44;;;;;;;10.28;8.45;;;;;;;3.42;100.00;99453.88;1744285;82;21157;-78
2022/12/13 01:58:51;;;;;;;11.38;7.90;;;;;;;3.42;100.00;99452.02;1751924;81;21218;-77
2022/12/13 02:01:56;;;;;;;10.50;8.30;;;;;;;3.47;100.00;99447.50;1752245;82;21156;-76
2022/12/13 02:05:14;;;;;;;8.50;7.25;;;;;;;3.69;100.00;99451.14;1751983;82;21180;-76
2022/12/13 02:08:20;;;;;;;10.78;7.12;;;;;;;3.57;100.00;99445.59;1753201;82;21168;-77
2022/12/13 02:11:26;;;;;;;8.98;7.22;;;;;;;3.62;100.00;99435.66;1752044;82;21171;-76
2022/12/13 02:14:33;;;;;;;10.23;8.20;;;;;;;3.67;100.00;99425.23;1751570;81;21196;-77
2022/12/13 02:18:10;;;;;;;11.88;8.53;;;;;;;3.68;100.00;99418.34;1753280;82;21165;-77
2022/12/13 02:21:27;;;;;;;10.25;8.35;;;;;;;3.70;99.46;99428.48;1748175;82;21188;-77
2022/12/13 02:25:02;;;;;;;10.00;7.87;;;;;;;3.70;98.54;99437.11;1747440;82;21827;-79
2022/12/13 02:28:37;;;;;;;11.18;7.75;;;;;;;3.68;98.04;99437.27;1751730;82;21775;-76
2022/12/13 02:32:10;;;;;;;14.25;8.18;;;;;;;3.57;97.85;99438.83;1753243;82;21165;-78
2022/12/13 02:35:39;;;;;;;11.55;8.80;;;;;;;3.49;97.90;99435.55;1752010;82;21195;-77
2022/12/13 02:39:06;;;;;;;10.85;8.35;;;;;;;3.49;97.77;99443.66;1753377;82;21251;-78
2022/12/13 02:42:24;;;;;;;10.23;8.35;;;;;;;3.46;97.70;99449.87;1751770;81;21176;-78
2022/12/13 02:45:49;;;;;;;13.08;9.33;;;;;;;3.45;97.93;99458.48;1752304;81;21232;-79
2022/12/13 02:48:54;;;;;;;13.30;9.70;;;;;;;3.44;98.38;99462.70;1748376;82;21212;-78
2022/12/13 02:51:59;;;;;;;11.63;9.18;;;;;;;3.42;98.39;99458.77;1748328;82;21204;-78
2022/12/13 02:55:04;;;;;;;10.13;8.43;;;;;;;3.42;98.46;99462.83;1748372;82;21212;-79
2022/12/13 02:58:09;;;;;;;12.58;8.73;;;;;;;3.42;98.40;99461.98;1753479;82;21207;-79
2022/12/13 03:01:42;;;;;;;11.30;8.55;;;;;;;3.41;98.50;99468.40;1753565;81;21172;-79
2022/12/13 03:08:55;;;;;;;11.25;8.55;;;;;;;3.42;98.58;99466.04;1753356;82;21184;-79
2022/12/13 03:16:33;;;;;;;;;;;;;;;3.33;99.03;99456.47;1753571;82;21768;-78
2022/12/13 03:19:37;;;;;;;11.48;9.18;;;;;;;3.42;98.70;99447.11;1753317;82;20188;-79
2022/12/13 03:22:43;;;;;;;10.65;8.60;;;;;;;3.50;98.15;99458.03;1753447;82;21733;-78
2022/12/13 03:25:49;;;;;;;11.68;9.45;;;;;;;3.49;97.98;99460.39;1752120;82;21259;-78
2022/12/13 03:28:55;;;;;;;13.53;10.13;;;;;;;3.50;97.79;99458.88;1747819;82;21204;-79
2022/12/13 03:32:03;;;;;;;13.05;9.73;;;;;;;3.39;98.21;99459.57;1746738;82;21174;-76
2022/12/13 03:35:09;;;;;;;15.20;10.60;;;;;;;3.42;98.13;99450.66;1746931;82;21200;-76
2022/12/13 03:38:16;;;;;;;13.43;9.70;;;;;;;3.48;98.31;99457.31;1746691;82;21184;-76
2022/12/13 03:41:30;;;;;;;14.50;10.03;;;;;;;3.53;98.04;99459.94;1746719;82;21169;-76
2022/12/13 03:44:32;;;;;;;13.25;9.70;;;;;;;3.47;97.77;99451.56;1753321;82;21791;-78
2022/12/13 03:47:38;;;;;;;14.30;10.10;;;;;;;3.46;97.22;99437.70;1748017;81;21216;-78
2022/12/13 03:50:42;;;;;;;16.82;10.85;;;;;;;3.41;96.90;99430.55;1747456;81;21744;-77
2022/12/13 03:53:49;;;;;;;22.98;10.08;;;;;;;3.32;96.85;99424.20;1760566;81;21200;-79
2022/12/13 03:56:55;;;;;;;15.28;10.43;;;;;;;3.24;96.97;99410.08;1760607;81;21160;-79
2022/12/13 04:00:01;;;;;;;17.12;12.05;;;;;;;3.24;96.88;99401.13;1750475;80;21191;-78
2022/12/13 04:03:06;;;;;;;15.00;10.63;;;;;;;3.11;96.74;99396.60;1768851;80;21125;-79
2022/12/13 04:06:11;;;;;;;13.40;10.35;;;;;;;2.99;96.79;99399.48;1764665;80;21177;-78
2022/12/13 04:09:18;;;;;;;13.32;9.60;;;;;;;2.88;96.94;99401.55;1773956;80;21159;-79
2022/12/13 04:15:49;;;;;;;14.58;10.40;;;;;;;2.79;97.59;99389.28;1770432;80;21157;-79
2022/12/13 04:18:55;;;;;;;16.23;10.60;;;;;;;2.78;97.88;99388.94;1730351;81;21157;-79
2022/12/13 04:22:00;;;;;;;14.75;10.58;;;;;;;2.81;98.25;99383.22;1754033;81;21156;-78
2022/12/13 04:25:06;;;;;;;12.82;9.95;;;;;;;2.78;98.75;99372.73;1740193;81;21172;-78
2022/12/13 04:28:13;;;;;;;16.37;11.38;;;;;;;2.77;99.01;99369.66;1742442;81;21191;-78
2022/12/13 04:31:20;;;;;;;14.00;10.55;;;;;;;2.78;99.29;99363.78;1740947;81;21172;-78
2022/12/13 04:34:25;;;;;;;16.35;10.88;;;;;;;2.77;99.05;99358.86;1741183;81;21176;-78
2022/12/13 04:37:34;;;;;;;14.23;9.55;;;;;;;2.68;98.81;99342.70;1739471;81;21152;-79
2022/12/13 04:40:42;;;;;;;12.10;9.55;;;;;;;2.58;99.15;99342.75;1745107;81;21179;-78
2022/12/13 04:43:47;;;;;;;14.07;10.28;;;;;;;2.51;99.43;99341.66;1741287;81;21164;-78
2022/12/13 04:46:52;;;;;;;14.25;9.88;;;;;;;2.49;99.85;99323.39;1739975;81;21156;-79
2022/12/13 04:49:58;;;;;;;13.93;10.05;;;;;;;2.48;100.00;99328.45;1747549;81;21168;-78
2022/12/13 04:53:03;;;;;;;18.48;11.15;;;;;;;2.43;100.00;99319.95;1743345;81;21701;-78
2022/12/13 04:56:03;;;;;;;16.10;11.80;;;;;;;2.39;100.00;99309.09;1743775;81;21128;-78
2022/12/13 04:59:07;;;;;;;16.80;11.35;;;;;;;2.35;100.00;99299.59;1739838;81;21187;-79
2022/12/13 05:02:13;;;;;;;16.27;11.10;;;;;;;2.29;100.00;99303.23;1738485;81;21749;-77
2022/12/13 05:05:20;;;;;;;18.95;12.20;;;;;;;2.21;100.00;99315.29;1743538;81;21180;-79
2022/12/13 05:08:25;;;;;;;14.38;10.28;;;;;;;2.21;100.00;99319.80;1742178;81;21132;-79
2022/12/13 05:11:30;;;;;;;15.88;11.15;;;;;;;2.17;100.00;99314.38;1739391;81;21164;-78
2022/12/13 05:14:38;;;;;;;16.93;10.60;;;;;;;2.20;100.00;99304.12;1739744;81;21148;-78
2022/12/13 05:17:43;;;;;;;14.50;10.35;;;;;;;2.21;100.00;99291.01;1740299;81;21144;-79
2022/12/13 05:20:49;;;;;;;18.15;11.68;;;;;;;2.16;100.00;99293.27;1732590;81;21158;-79
2022/12/13 05:23:55;;;;;;;18.42;11.48;;;;;;;2.11;100.00;99287.97;1738980;82;21153;-79
2022/12/13 05:27:00;;;;;;;18.87;10.75;;;;;;;2.03;100.00;99302.21;1738751;81;21144;-79
2022/12/13 05:30:07;;;;;;;13.45;10.23;;;;;;;2.00;100.00;99306.54;1713806;83;21158;-78
2022/12/13 05:33:12;;;;;;;22.98;10.63;;;;;;;1.97;100.00;99306.82;1741399;81;21228;-79
2022/12/13 05:36:17;;;;;;;14.20;10.15;;;;;;;2.08;100.00;99312.56;1725130;82;21177;-79
2022/12/13 05:39:24;;;;;;;18.60;11.05;;;;;;;2.13;100.00;99320.56;1726304;82;21220;-78
2022/12/13 05:42:30;;;;;;;18.82;11.60;;;;;;;2.10;100.00;99324.05;1762045;80;21196;-77
2022/12/13 05:45:37;;;;;;;14.50;11.03;;;;;;;2.21;100.00;99322.03;1756544;81;21141;-77
2022/12/13 05:48:43;;;;;;;15.25;10.95;;;;;;;2.15;100.00;99325.80;1765311;80;21152;-77
2022/12/13 05:51:49;;;;;;;13.88;9.70;;;;;;;2.22;100.00;99329.13;1756853;81;21188;-78
2022/12/13 05:54:57;;;;;;;15.40;10.82;;;;;;;2.25;100.00;99332.86;1757822;81;21204;-78
2022/12/13 05:58:02;;;;;;;14.70;11.15;;;;;;;2.28;100.00;99336.63;1741839;82;21144;-77
2022/12/13 06:01:14;;;;;;;15.72;10.80;;;;;;;2.28;100.00;99335.27;1728576;82;21172;-78
2022/12/13 06:04:19;;;;;;;;;;;;;;;2.40;100.00;99325.16;1730288;82;21741;-79
2022/12/13 06:07:25;;;;;;;16.67;12.03;;;;;;;2.47;100.00;99328.11;1750322;82;20592;-80
2022/12/13 06:10:31;;;;;;;19.23;11.35;;;;;;;2.50;100.00;99333.22;1745958;81;21150;-80
2022/12/13 06:13:36;;;;;;;15.55;11.97;;;;;;;2.84;100.00;99350.17;1735639;81;21834;-78
2022/12/13 06:16:43;;;;;;;20.00;16.52;;;;;;;6.89;81.74;99347.11;1736679;81;21231;-77
2022/12/13 06:19:50;;;;;;;14.68;11.38;;;;;;;7.29;76.15;99350.68;1730087;81;21289;-76
2022/12/13 06:22:54;;;;;;;15.03;10.95;;;;;;;7.66;75.38;99348.55;1725710;83;21160;-77
2022/12/13 06:25:53;;;;;;;18.77;11.60;;;;;;;7.40;75.99;99344.82;1721478;81;21164;-78
2022/12/13 06:28:52;;;;;;;16.97;10.90;;;;;;;7.38;75.97;99340.58;1715202;83;21847;-77
2022/12/13 06:32:03;;;;;;;14.33;9.90;;;;;;;6.89;77.82;99334.04;1723222;81;21776;-78
2022/12/13 06:35:09;;;;;;;;;;;;;;;6.48;80.49;99336.03;1722989;81;21788;-80
2022/12/13 06:38:16;;;;;;;15.93;11.35;;;;;;;6.69;79.18;99306.95;1729746;81;20222;-77
2022/12/13 06:41:22;;;;;;;14.85;10.55;;;;;;;6.79;78.49;99309.78;1728466;81;21728;-80
2022/12/13 06:44:29;;;;;;;15.85;11.70;;;;;;;6.90;78.02;99318.90;1722862;83;21238;-77
2022/12/13 06:47:34;;;;;;;13.58;9.60;;;;;;;7.07;77.44;99326.99;1724740;81;21240;-78
2022/12/13 06:50:41;;;;;;;16.70;10.30;;;;;;;7.00;77.60;99317.84;1717764;83;21180;-78
2022/12/13 06:53:47;;;;;;;14.25;10.82;;;;;;;6.81;77.76;99302.29;1725942;81;21232;-79
2022/12/13 06:56:53;;;;;;;15.35;9.98;;;;;;;6.58;78.90;99309.52;1711102;83;21713;-78
2022/12/13 06:59:58;;;;;;;14.53;10.53;;;;;;;6.46;78.86;99302.78;1724338;81;21180;-79
2022/12/13 07:03:03;;;;;;;13.25;9.15;;;;;;;6.61;78.89;99301.87;1725891;83;21176;-79
2022/12/13 07:06:21;;;;;;;13.50;9.43;;;;;;;6.75;78.51;99306.23;1731706;81;21173;-78
2022/12/13 07:12:40;;;;;;;11.50;9.00;;;;;;;6.61;79.33;99277.92;1727934;81;21172;-79
2022/12/13 07:15:46;;;;;;;13.93;9.53;;;;;;;6.76;79.12;99283.47;1726480;81;21200;-79
2022/12/13 07:18:53;;;;;;;13.80;9.60;;;;;;;6.59;79.81;99278.63;1725883;81;21188;-78
2022/12/13 07:21:58;;;;;;;15.15;10.75;;;;;;;6.80;80.39;99284.30;1719196;81;21176;-78
2022/12/13 07:25:05;;;;;;;22.15;19.80;;;;;;;7.11;79.66;99282.95;1726921;81;21231;-79
2022/12/13 07:28:16;;;;;;;16.90;12.53;;;;;;;7.25;79.14;99281.86;1726205;82;21248;-80
2022/12/13 07:31:22;;;;;;;18.30;14.53;;;;;;;8.19;75.59;99264.21;1720423;82;21169;-79
2022/12/13 07:34:27;;;;;;;17.35;13.08;;;;;;;7.63;77.16;99267.28;1722670;82;21215;-78
2022/12/13 07:37:34;;;;;;;14.13;11.28;;;;;;;7.18;79.15;99258.59;1734857;82;21781;-79
2022/12/13 07:40:44;;;;;;;12.40;9.70;;;;;;;7.37;78.77;99255.91;1742305;80;21163;-78
2022/12/13 07:43:49;;;;;;;12.43;8.60;;;;;;;6.90;81.23;99255.02;1710601;82;21283;-78
2022/12/13 07:46:54;;;;;;;13.65;8.43;;;;;;;6.94;81.12;99256.03;1705617;83;21237;-79
2022/12/13 07:50:00;;;;;;;13.05;9.60;;;;;;;7.18;80.63;99262.67;1743066;80;21182;-78
2022/12/13 07:53:10;;;;;;;14.55;11.65;;;;;;;7.25;79.66;99266.89;1715303;82;21172;-80
2022/12/13 07:56:17;;;;;;;14.25;10.05;;;;;;;7.18;79.51;99274.91;1728342;80;21180;-78
2022/12/13 07:59:23;;;;;;;13.40;11.22;;;;;;;6.91;80.46;99259.42;1715231;82;21235;-80
2022/12/13 08:02:25;;;;;;;13.50;10.28;;;;;;;6.77;81.87;99253.89;1744474;80;21746;-80
2022/12/13 08:05:30;;;;;;;21.68;17.45;;;;;;;6.81;82.11;99249.28;1717168;82;21165;-80
2022/12/13 08:08:37;;;;;;;17.92;12.15;;;;;;;7.01;81.30;99234.75;1720374;82;21239;-80
2022/12/13 08:11:42;;;;;;;16.02;11.73;;;;;;;6.84;81.80;99226.36;1704747;83;21173;-80
2022/12/13 08:14:48;;;;;;;22.70;18.85;;;;;;;6.86;81.79;99225.13;1712940;82;21860;-79
2022/12/13 08:17:54;;;;;;;20.25;17.05;;;;;;;6.98;81.83;99231.54;1717163;83;21147;-78
2022/12/13 08:21:01;;;;;;;19.90;15.72;;;;;;;6.93;81.83;99233.44;1737808;80;21216;-77
2022/12/13 08:24:02;;;;;;;21.42;16.23;;;;;;;6.99;82.25;99222.35;1740514;81;21898;-77
2022/12/13 08:26:59;;;;;;;18.05;13.48;;;;;;;7.10;81.79;99204.25;1734736;82;21211;-80
2022/12/13 08:30:04;;;;;;;17.52;12.37;;;;;;;6.60;83.38;99213.23;1731377;82;21202;-78
2022/12/13 08:33:11;;;;;;;16.07;12.15;;;;;;;6.62;84.13;99204.89;1732227;82;21164;-78
2022/12/13 08:36:22;;;;;;;19.48;16.65;;;;;;;6.63;83.87;99207.94;1735031;82;21713;-77
2022/12/13 08:39:27;;;;;;;19.90;13.78;;;;;;;6.82;83.54;99206.16;1712178;83;21617;-78
2022/12/13 08:42:34;;;;;;;17.70;12.73;;;;;;;7.01;83.31;99210.28;1709420;82;21209;-77
2022/12/13 08:45:41;;;;;;;19.10;14.83;;;;;;;7.16;82.36;99205.75;1741436;81;21178;-78
2022/12/13 08:48:46;;;;;;;20.62;15.68;;;;;;;7.43;81.46;99196.20;1712289;83;21196;-78
2022/12/13 08:51:53;;;;;;;21.60;17.73;;;;;;;6.91;82.77;99184.66;1718964;82;21185;-77
2022/12/13 08:54:52;;;;;;;23.30;18.00;;;;;;;7.01;82.50;99178.14;1715043;82;21317;-79
2022/12/13 08:58:01;;;;;;;17.73;12.95;;;;;;;6.82;83.39;99163.16;1740834;80;21479;-78
2022/12/13 09:01:06;;;;;;;19.65;13.53;;;;;;;7.04;83.48;99154.68;1710617;83;21711;-79
2022/12/13 09:04:14;;;;;;;17.40;11.18;;;;;;;7.09;83.26;99142.74;1700787;83;21228;-79
2022/12/13 09:07:20;;;;;;;17.42;11.10;;;;;;;7.14;83.24;99125.36;1695448;83;21713;-78
2022/12/13 09:10:26;;;;;;;17.85;10.75;;;;;;;7.22;83.58;99113.06;1695595;83;21164;-79
2022/12/13 09:13:36;;;;;;;16.17;10.98;;;;;;;7.06;84.31;99107.78;1737844;80;21224;-78
2022/12/13 09:16:43;;;;;;;14.80;10.65;;;;;;;7.21;83.47;99101.02;1704490;83;21766;-79
2022/12/13 09:19:49;;;;;;;15.43;10.72;;;;;;;7.30;83.34;99077.63;1703522;82;21204;-79
2022/12/13 09:22:56;;;;;;;17.77;10.93;;;;;;;7.30;82.60;99058.59;1759339;79;22344;-79
2022/12/13 09:26:02;;;;;;;16.40;10.93;;;;;;;7.28;82.80;99060.64;1751928;81;21212;-79
2022/12/13 09:29:09;;;;;;;17.60;11.33;;;;;;;7.27;82.34;99049.44;1778386;79;22159;-79
2022/12/13 09:32:14;;;;;;;17.92;12.05;;;;;;;7.28;82.53;99047.03;1774757;79;21180;-78
2022/12/13 09:35:19;;;;;;;20.10;10.95;;;;;;;7.16;82.92;99037.66;1754075;81;21211;-79
2022/12/13 09:38:25;;;;;;;18.82;11.68;;;;;;;7.38;82.10;99023.12;1775558;80;21133;-79
2022/12/13 09:41:45;;;;;;;17.98;11.60;;;;;;;7.30;81.74;99013.71;1779994;79;21166;-79
2022/12/13 09:44:59;;;;;;;16.15;10.78;;;;;;;7.33;81.85;99003.80;1748952;80;21829;-79
2022/12/13 09:48:06;;;;;;;19.65;11.35;;;;;;;7.50;81.01;98984.58;1774864;79;21154;-78
2022/12/13 09:51:17;;;;;;;14.87;10.03;;;;;;;7.39;81.21;98998.15;1749580;80;21168;-79
2022/12/13 09:54:28;;;;;;;16.10;9.80;;;;;;;7.38;81.51;98982.31;1775968;79;21207;-79
2022/12/13 09:57:38;;;;;;;15.10;9.65;;;;;;;7.43;81.70;98981.27;1780408;80;21155;-79
2022/12/13 10:00:42;;;;;;;15.68;9.95;;;;;;;7.66;81.21;98967.52;1782300;80;21132;-78
2022/12/13 10:03:50;;;;;;;18.62;10.40;;;;;;;7.70;81.09;98970.70;1777528;79;21584;-79
2022/12/13 10:07:00;;;;;;;15.18;10.18;;;;;;;7.64;80.85;98957.87;1755695;80;21655;-79
2022/12/13 10:10:07;;;;;;;13.20;8.63;;;;;;;7.88;79.92;98938.98;1758433;80;21182;-79
2022/12/13 10:13:29;;;;;;;17.73;9.68;;;;;;;7.71;80.63;98939.72;1760249;80;21176;-78
2022/12/13 10:16:43;;;;;;;16.52;9.45;;;;;;;7.46;81.18;98925.61;1756597;81;21260;-79
2022/12/13 10:19:51;;;;;;;16.30;10.03;;;;;;;7.76;80.63;98920.09;1765100;80;21216;-79
2022/12/13 10:22:57;;;;;;;32.63;16.60;;;;;;;7.77;80.50;98917.20;1754437;81;21182;-78
2022/12/13 10:26:02;;;;;;;15.58;10.75;;;;;;;7.87;80.29;98909.56;1734239;81;21157;-79
2022/12/13 10:29:10;;;;;;;24.00;11.30;;;;;;;7.86;80.25;98894.80;1720611;83;21199;-78
2022/12/13 10:32:20;;;;;;;30.48;20.62;;;;;;;7.73;80.67;98884.59;1719129;83;21213;-78
2022/12/13 10:35:38;;;;;;;18.13;11.73;;;;;;;7.63;81.38;98883.55;1714665;83;21772;-78
2022/12/13 10:38:46;;;;;;;15.08;10.55;;;;;;;7.50;81.62;98873.87;1731633;83;21205;-79
2022/12/13 10:41:50;;;;;;;20.82;14.28;;;;;;;7.53;81.97;98866.69;1730852;83;21170;-77
2022/12/13 10:44:56;;;;;;;15.32;10.18;;;;;;;7.42;82.23;98869.89;1718849;83;21410;-77
2022/12/13 10:48:03;;;;;;;18.15;12.37;;;;;;;7.42;82.38;98876.17;1730519;81;21196;-77
2022/12/13 10:51:14;;;;;;;15.30;11.90;;;;;;;7.45;82.35;98866.80;1717307;83;21196;-76
2022/12/13 10:54:25;;;;;;;22.07;14.90;;;;;;;7.40;82.83;98870.61;1724032;81;21189;-81
2022/12/13 10:57:32;;;;;;;111.90;65.45;;;;;;;7.38;83.07;98883.55;1727242;83;21180;-76
2022/12/13 11:00:48;;;;;;;109.78;55.80;;;;;;;7.54;82.77;98886.58;1716182;83;21143;-76
2022/12/13 11:04:11;;;;;;;28.02;16.15;;;;;;;7.50;82.83;98878.47;1724791;81;21242;-82
2022/12/13 11:07:37;;;;;;;19.75;11.48;;;;;;;7.51;82.86;98873.34;1731430;82;21740;-75
2022/12/13 11:10:44;;;;;;;20.00;12.80;;;;;;;7.77;81.73;98875.53;1703087;84;21191;-80
2022/12/13 11:18:26;;;;;;;24.95;14.03;;;;;;;7.80;81.50;98880.58;1720719;81;21183;-81
2022/12/13 11:21:37;;;;;;;31.93;17.50;;;;;;;7.85;81.84;98872.14;1727966;83;21223;-80
2022/12/13 11:24:46;;;;;;;62.15;26.10;;;;;;;7.87;81.42;98866.53;1751764;80;21180;-80
2022/12/13 11:28:24;;;;;;;28.62;17.00;;;;;;;7.87;81.65;98870.61;1749472;80;21152;-80
2022/12/13 11:31:51;;;;;;;28.40;17.60;;;;;;;7.64;82.29;98868.06;1758763;81;21804;-75
2022/12/13 11:34:57;;;;;;;23.60;15.83;;;;;;;7.75;82.00;98864.81;1783297;79;21524;-75
2022/12/13 11:38:00;;;;;;;16.87;10.83;;;;;;;7.46;82.98;98864.92;1770958;80;21686;-75
2022/12/13 11:41:19;;;;;;;25.15;14.85;;;;;;;7.36;83.43;98866.06;1768215;80;21730;-80
2022/12/13 11:45:13;;;;;;;24.15;14.93;;;;;;;7.32;83.80;98855.23;1776289;80;21243;-80
2022/12/13 11:48:37;;;;;;;28.25;17.15;;;;;;;7.17;84.30;98847.63;1782176;80;21161;-76
2022/12/13 11:51:58;;;;;;;29.90;16.05;;;;;;;7.44;83.34;98835.20;1772419;79;21757;-76
2022/12/13 11:55:24;;;;;;;20.12;12.80;;;;;;;7.19;82.88;98829.23;1782925;80;21744;-81
2022/12/13 11:59:06;;;;;;;23.35;14.15;;;;;;;7.00;82.81;98829.83;1785112;80;21183;-80
2022/12/13 12:02:36;;;;;;;21.87;14.93;;;;;;;6.55;83.75;98816.79;1776066;80;21124;-77
2022/12/13 12:05:44;;;;;;;20.43;12.53;;;;;;;6.48;83.81;98813.95;1785063;80;21172;-75
2022/12/13 12:09:06;;;;;;;14.53;9.60;;;;;;;6.48;83.68;98809.88;1783875;79;21716;-79
2022/12/13 12:12:13;;;;;;;12.70;8.13;;;;;;;6.27;83.86;98792.98;1783229;80;21172;-79
2022/12/13 12:15:26;;;;;;;14.15;9.15;;;;;;;6.07;82.74;98794.03;1765093;80;21204;-79
2022/12/13 12:18:34;;;;;;;15.38;8.65;;;;;;;5.84;83.37;98785.89;1785114;80;21188;-79
2022/12/13 12:22:06;;;;;;;15.13;8.65;;;;;;;5.87;83.17;98779.23;1710032;82;21683;-76
2022/12/13 12:25:34;;;;;;;13.08;9.10;;;;;;;5.76;82.68;98753.39;1719728;80;21235;-76
2022/12/13 12:29:11;;;;;;;13.85;9.93;;;;;;;5.59;82.64;98747.77;1721415;83;21757;-77
2022/12/13 12:32:40;;;;;;;18.92;10.23;;;;;;;5.42;82.42;98736.75;1758373;79;21717;-77
2022/12/13 12:36:12;;;;;;;16.00;10.55;;;;;;;5.34;82.11;98738.48;1754781;80;21732;-76
2022/12/13 12:39:32;;;;;;;28.20;14.05;;;;;;;5.44;81.75;98748.24;1761470;79;21144;-80
2022/12/13 12:43:10;;;;;;;31.40;15.23;;;;;;;5.16;82.03;98751.48;1742372;80;21811;-80
2022/12/13 12:46:42;;;;;;;26.33;15.32;;;;;;;4.99;82.69;98752.63;1758170;80;21767;-76
2022/12/13 12:50:03;;;;;;;18.80;12.28;;;;;;;4.83;83.22;98753.03;1743614;81;21219;-75
2022/12/13 12:53:46;;;;;;;13.08;8.90;;;;;;;4.62;83.79;98740.63;1756234;81;21233;-75
2022/12/13 12:57:31;;;;;;;19.82;12.15;;;;;;;4.66;83.89;98728.43;1748132;81;21164;-75
2022/12/13 13:00:47;;;;;;;21.52;12.90;;;;;;;4.59;84.10;98717.95;1748096;80;21210;-81
2022/12/13 13:03:54;;;;;;;18.67;11.48;;;;;;;4.61;84.33;98724.03;1726171;80;21290;-74
2022/12/13 13:07:23;;;;;;;17.00;9.78;;;;;;;4.48;84.79;98721.06;1747731;81;21180;-74
2022/12/13 13:10:31;;;;;;;23.25;12.05;;;;;;;4.35;86.04;98727.87;1755126;80;21184;-81
2022/12/13 13:13:51;;;;;;;14.78;9.50;;;;;;;4.42;86.23;98725.81;1757539;80;21242;-81
2022/12/13 13:17:00;;;;;;;15.08;9.68;;;;;;;4.22;87.15;98722.67;1757385;81;21855;-80
2022/12/13 13:20:31;;;;;;;22.32;13.05;;;;;;;4.00;88.62;98719.71;1745394;81;21235;-80
2022/12/13 13:23:38;;;;;;;19.73;11.50;;;;;;;4.41;87.79;98716.84;1750255;81;21220;-81
2022/12/13 13:26:53;;;;;;;16.17;10.40;;;;;;;4.30;88.24;98713.18;1727305;81;21215;-75
2022/12/13 13:29:59;;;;;;;11.22;7.92;;;;;;;4.25;88.40;98713.70;1696708;84;21242;-75
2022/12/13 13:33:04;;;;;;;19.17;10.55;;;;;;;4.28;88.69;98709.78;1732173;81;21180;-75
2022/12/13 13:36:12;;;;;;;15.30;8.03;;;;;;;4.49;87.75;98714.63;1727279;83;21779;-80
2022/12/13 13:39:28;;;;;;;12.20;8.23;;;;;;;4.42;87.53;98711.76;1742352;81;21270;-75
2022/12/13 13:42:37;;;;;;;21.40;11.63;;;;;;;4.33;87.31;98715.03;1751014;81;21765;-75
2022/12/13 13:46:06;;;;;;;29.05;12.15;;;;;;;4.31;87.06;98710.80;1757704;81;21169;-80
2022/12/13 13:49:14;;;;;;;22.40;11.88;;;;;;;4.25;87.36;98723.69;1735437;82;21215;-80
2022/12/13 13:52:28;;;;;;;13.20;9.03;;;;;;;4.33;86.95;98720.45;1727791;83;21176;-80
2022/12/13 13:56:06;;;;;;;15.75;10.20;;;;;;;4.33;86.67;98736.70;1738069;82;21168;-75
2022/12/13 13:59:43;;;;;;;17.37;11.25;;;;;;;4.32;86.61;98746.32;1729788;82;21208;-80
2022/12/13 14:03:24;;;;;;;16.82;11.40;;;;;;;4.15;86.77;98748.25;1727729;83;21553;-79
2022/12/13 14:07:16;;;;;;;23.45;14.03;;;;;;;4.41;85.90;98747.98;1728584;83;21731;-80
2022/12/13 14:10:50;;;;;;;23.80;14.03;;;;;;;4.38;85.65;98752.92;1728856;81;21720;-75
2022/12/13 14:14:44;;;;;;;20.95;12.45;;;;;;;4.13;86.34;98765.15;1751496;81;21191;-75
2022/12/13 14:18:41;;;;;;;15.93;10.13;;;;;;;3.83;87.73;98760.81;1752006;82;21199;-74
2022/12/13 14:22:16;;;;;;;9.68;7.05;;;;;;;3.66;88.47;98761.00;1752270;82;21168;-77
2022/12/13 14:25:51;;;;;;;8.85;5.67;;;;;;;3.71;88.74;98775.69;1751242;81;21205;-75
2022/12/13 14:29:03;;;;;;;6.97;4.42;;;;;;;3.71;88.60;98778.39;1776903;80;21789;-79
2022/12/13 14:32:10;;;;;;;4.85;3.33;;;;;;;3.79;88.64;98771.64;1782439;80;21195;-77
2022/12/13 14:35:37;;;;;;;5.33;3.47;;;;;;;3.58;89.36;98786.20;1763326;80;21176;-76
2022/12/13 14:38:43;;;;;;;4.47;3.55;;;;;;;3.56;89.81;98790.91;1782914;80;21208;-80
2022/12/13 14:41:55;;;;;;;7.00;5.28;;;;;;;3.49;90.11;98789.91;1782946;80;21192;-76
2022/12/13 14:45:00;;;;;;;7.25;5.30;;;;;;;3.64;89.91;98776.05;1778366;80;21733;-80
2022/12/13 14:48:11;;;;;;;9.83;6.45;;;;;;;3.71;89.81;98781.61;1753959;81;21717;-80
2022/12/13 14:51:39;;;;;;;9.18;6.72;;;;;;;3.66;89.59;98801.05;1782743;79;21144;-80
2022/12/13 14:55:07;;;;;;;9.85;7.30;;;;;;;3.54;89.95;98799.70;1773965;80;21735;-76
2022/12/13 14:58:24;;;;;;;8.58;6.50;;;;;;;3.56;90.13;98797.67;1778354;80;21208;-80
2022/12/13 15:01:46;;;;;;;10.08;6.45;;;;;;;3.65;89.68;98779.08;1775765;80;21142;-80
2022/12/13 15:04:52;;;;;;;8.48;6.03;;;;;;;3.77;88.38;98772.84;1767956;79;21184;-76
2022/12/13 15:07:57;;;;;;;9.78;6.65;;;;;;;3.94;87.74;98804.25;1784521;79;21161;-76
2022/12/13 15:11:06;;;;;;;8.43;6.20;;;;;;;3.90;87.87;98800.19;1732143;81;21179;-76
2022/12/13 15:14:12;;;;;;;8.23;6.35;;;;;;;3.78;88.19;98781.28;1727048;83;21212;-76
2022/12/13 15:17:35;;;;;;;8.73;6.78;;;;;;;3.60;88.62;98780.09;1755284;81;21188;-77
2022/12/13 15:20:46;;;;;;;7.47;5.78;;;;;;;3.62;88.97;98779.41;1698002;81;21792;-77
2022/12/13 15:23:54;;;;;;;10.00;6.80;;;;;;;3.50;89.06;98790.24;1769810;80;21241;-77
2022/12/13 15:27:03;;;;;;;7.22;5.58;;;;;;;3.50;89.00;98807.30;1739638;81;21211;-79
2022/12/13 15:30:09;;;;;;;7.08;6.00;;;;;;;3.44;89.33;98813.90;1787360;80;21685;-79
2022/12/13 15:33:29;;;;;;;10.35;6.15;;;;;;;3.42;89.86;98814.05;1779543;80;21153;-77
2022/12/13 15:36:36;;;;;;;8.63;6.37;;;;;;;3.52;89.57;98821.99;1773306;80;22128;-79
2022/12/13 15:39:46;;;;;;;10.48;6.83;;;;;;;3.60;89.57;98824.71;1757126;81;21201;-77
2022/12/13 15:42:52;;;;;;;8.88;5.72;;;;;;;3.50;90.25;98842.95;1777313;80;21176;-77
2022/12/13 15:45:58;;;;;;;7.35;6.03;;;;;;;3.65;90.46;98853.45;1765221;81;21156;-76
2022/12/13 15:49:06;;;;;;;6.85;5.08;;;;;;;3.72;90.17;98859.05;1767982;80;21790;-77
2022/12/13 15:52:14;;;;;;;7.75;5.20;;;;;;;4.01;89.12;98863.44;1766471;81;21164;-80
2022/12/13 15:55:24;;;;;;;4.85;3.87;;;;;;;3.97;89.01;98874.26;1764661;80;21733;-80
2022/12/13 15:58:40;;;;;;;4.47;3.90;;;;;;;4.05;88.59;98871.56;1735445;81;21235;-80
2022/12/13 16:01:47;;;;;;;4.20;3.67;;;;;;;4.12;88.42;98881.19;1735887;82;21772;-75
2022/12/13 19:15:46;;;;;;;12.15;8.68;;;;;;;3.22;91.56;99210.75;1757084;79;28821;-79
2022/12/13 19:18:53;;;;;;;12.85;9.05;;;;;;;3.13;90.55;99217.59;1719821;82;21160;-78
2022/12/13 19:21:59;;;;;;;13.55;8.68;;;;;;;3.35;88.71;99228.44;1722632;80;21780;-76
2022/12/13 19:25:04;;;;;;;11.97;8.40;;;;;;;3.33;87.42;99236.68;1765211;80;21500;-79
2022/12/13 19:28:13;;;;;;;13.70;9.23;;;;;;;2.88;88.47;99238.14;1734517;82;21136;-79
2022/12/13 19:31:20;;;;;;;13.77;8.17;;;;;;;3.23;86.94;99252.14;1755097;82;21171;-78
2022/12/13 19:34:29;;;;;;;13.18;8.58;;;;;;;3.19;86.09;99248.89;1722743;83;21191;-78
2022/12/13 19:37:36;;;;;;;14.10;8.78;;;;;;;3.06;85.86;99259.26;1754839;82;21140;-79
2022/12/13 19:40:41;;;;;;;12.78;8.48;;;;;;;3.08;85.76;99264.84;1722268;83;21223;-77